Decoded Metar for KBKW (BECKLEY in WV, USA) (IATA:BKW) | Meteo·Mobile Aviation Weather
aviador You're here:

KBKW Decoded Metar

BECKLEY in WV, USA
Report Time2019-04-19 23:05:00
UTC Time2019-04-19 23:15:07
Flight Rules vfr VFR
Wind090° at 04 kt
W.Decomp.*RWY 10: 4.0 kt HW 0.3 kt LCW
RWY 01: 0.3 kt HW 4.0 kt RCW
Visibility9999 m
Phenomena:N/A
Clouds:Few 006 Hf
Scattered 075 Hf
Broken 100 Hf
Expected CloudBase > 400 ft AGL from Temp-Dew spread
Ceiling10,000 ft
Temp13°C (ISA +3)
Dew Point12°C (94% RH)
AAT12.2°C
QNH998 hPa
Density Alt3,566 ft
Elevation2,507 ft
Report Wrong Elevation
Raw Report
KBKW 192305Z AUTO 09004KT 10SM FEW006 SCT075 BKN100 13/12 A2947=

Extra information for KBKW:More info

Metar Taf Metar & Taf Last 4 Metars F.Rules Stats Wind Profile Meteogram Temp Stats Airport Information Weather charts Add Link Nearby VenuesMetar ALERT Operation Metar Decoded Social comments

AIRNAV info for KBKW